Time;durP1;ratioP1;P1;durP2;ratioP2;P2;SDS_P1;SDS_P2;PMS_P1;PMS_P2;Temp;Humidity;BMP_temperature;BMP_pressure;BME280_temperature;BME280_humidity;BME280_pressure;Samples;Min_cycle;Max_cycle;Signal;HPM_P1;HPM_P2
2022/01/26 00:06:48;;;;;;;5.17;4.67;;;2.70;99.90;;;;;;5032921;28;20221;-79
2022/01/26 00:09:14;;;;;;;6.50;3.70;;;2.70;99.90;;;;;;5057222;28;20298;-79
2022/01/26 00:11:40;;;;;;;4.53;4.13;;;2.70;99.90;;;;;;5056643;28;20202;-79
2022/01/26 00:14:10;;;;;;;2.57;2.47;;;2.70;99.90;;;;;;5039428;28;20180;-79
2022/01/26 00:16:41;;;;;;;4.27;3.60;;;2.70;99.90;;;;;;5039450;28;20183;-79
2022/01/26 00:19:16;;;;;;;3.93;3.27;;;2.70;99.90;;;;;;5056803;28;20617;-79
2022/01/26 00:21:51;;;;;;;2.40;2.23;;;2.70;99.90;;;;;;5029350;28;20199;-79
2022/01/26 00:29:20;;;;;;;9.40;4.63;;;2.60;99.90;;;;;;5055912;28;20256;-78
2022/01/26 00:40:19;;;;;;;5.10;4.57;;;2.70;99.90;;;;;;5055114;28;20256;-78
2022/01/26 00:42:47;;;;;;;3.63;3.30;;;2.70;99.90;;;;;;5054673;28;20182;-78
2022/01/26 00:45:13;;;;;;;6.47;3.97;;;2.60;99.90;;;;;;5054760;28;20183;-78
2022/01/26 00:47:38;;;;;;;3.03;2.93;;;2.60;99.90;;;;;;5054914;28;20571;-78
2022/01/26 00:50:09;;;;;;;6.63;5.63;;;2.60;99.90;;;;;;5054642;28;20677;-79
2022/01/26 00:52:43;;;;;;;3.63;3.13;;;2.60;99.90;;;;;;5054300;28;20179;-78
2022/01/26 00:55:14;;;;;;;6.30;5.67;;;2.60;99.90;;;;;;5036362;28;20187;-78
2022/01/26 00:57:41;;;;;;;7.03;6.30;;;2.60;99.90;;;;;;5054324;28;20195;-78
2022/01/26 01:00:13;;;;;;;1.57;1.47;;;2.60;99.90;;;;;;5055347;28;20198;-78
2022/01/26 01:02:38;;;;;;;3.57;3.47;;;2.60;99.90;;;;;;5055030;28;20187;-78
2022/01/26 01:05:14;;;;;;;3.80;3.43;;;2.60;99.90;;;;;;5054693;28;20192;-79
2022/01/26 01:07:41;;;;;;;3.87;3.57;;;2.60;99.90;;;;;;5054906;28;20203;-78
2022/01/26 01:10:07;;;;;;;3.90;3.40;;;2.60;99.90;;;;;;5037192;28;20188;-78
2022/01/26 01:12:39;;;;;;;11.83;5.20;;;2.60;99.90;;;;;;5054829;28;20749;-78
2022/01/26 01:15:05;;;;;;;5.53;3.83;;;2.60;99.90;;;;;;5055256;28;20187;-78
2022/01/26 01:17:38;;;;;;;11.07;4.63;;;2.60;99.90;;;;;;5056070;28;20257;-79
2022/01/26 01:28:12;;;;;;;25.30;7.70;;;2.70;99.90;;;;;;5041689;28;20255;-79
2022/01/26 01:30:42;;;;;;;4.83;4.50;;;2.60;99.90;;;;;;5054223;28;20186;-78
2022/01/26 01:33:10;;;;;;;3.37;3.17;;;2.60;99.90;;;;;;5035715;28;20207;-78
2022/01/26 01:35:39;;;;;;;4.47;4.07;;;2.60;99.90;;;;;;5036501;28;20214;-79
2022/01/26 01:38:10;;;;;;;5.90;5.37;;;2.60;99.90;;;;;;5054867;28;20227;-78
2022/01/26 01:40:38;;;;;;;15.37;4.47;;;2.60;99.90;;;;;;5038459;28;20201;-80
2022/01/26 01:43:05;;;;;;;3.37;3.17;;;2.60;99.90;;;;;;5055813;28;20191;-80
2022/01/26 01:45:33;;;;;;;5.80;5.30;;;2.70;99.90;;;;;;5038822;28;20194;-80
2022/01/26 01:47:59;;;;;;;5.57;5.20;;;2.70;99.90;;;;;;5036751;28;20218;-78
2022/01/26 01:50:25;;;;;;;5.80;4.33;;;2.60;99.90;;;;;;5053139;28;20205;-78
2022/01/26 01:52:50;;;;;;;5.23;4.80;;;2.70;99.90;;;;;;5052971;28;20285;-78
2022/01/26 01:55:16;;;;;;;11.17;8.33;;;2.60;99.90;;;;;;5053175;28;20184;-79
2022/01/26 01:57:42;;;;;;;5.70;4.10;;;2.60;99.90;;;;;;5035011;28;20207;-79
2022/01/26 02:00:10;;;;;;;4.37;3.83;;;2.60;99.90;;;;;;5020803;28;20698;-78
2022/01/26 02:02:36;;;;;;;10.73;6.90;;;2.60;99.90;;;;;;5051881;28;20244;-78
2022/01/26 02:05:03;;;;;;;19.20;8.57;;;2.60;99.90;;;;;;5051489;28;20178;-78
2022/01/26 02:07:28;;;;;;;6.63;6.07;;;2.60;99.90;;;;;;5051632;28;20480;-78
2022/01/26 02:09:54;;;;;;;10.97;5.50;;;2.70;99.90;;;;;;5051533;28;20284;-78
2022/01/26 02:12:23;;;;;;;8.17;7.37;;;2.70;99.90;;;;;;5033482;28;20192;-79
2022/01/26 02:14:54;;;;;;;6.30;5.77;;;2.70;99.90;;;;;;5052161;28;20280;-77
2022/01/26 02:50:43;;;;;;;6.87;4.63;;;2.60;99.90;;;;;;5056791;28;20184;-79
2022/01/26 02:55:37;;;;;;;12.03;5.77;;;2.60;99.90;;;;;;5056166;28;20179;-78
2022/01/26 03:03:13;;;;;;;5.53;5.10;;;2.60;99.90;;;;;;5054130;28;20176;-78
2022/01/26 03:05:46;;;;;;;4.73;4.47;;;2.60;99.90;;;;;;5037811;28;20199;-78
2022/01/26 03:08:12;;;;;;;2.97;2.87;;;2.60;99.90;;;;;;5055280;28;20283;-80
2022/01/26 03:10:52;;;;;;;4.93;4.67;;;2.60;99.90;;;;;;5056066;28;20174;-78
2022/01/26 03:13:23;;;;;;;11.00;7.97;;;2.60;99.90;;;;;;5038050;28;20182;-78
2022/01/26 03:15:55;;;;;;;7.03;6.33;;;2.50;99.90;;;;;;5056172;28;20258;-79
2022/01/26 03:21:34;;;;;;;3.83;3.63;;;2.50;99.90;;;;;;5022131;28;20607;-79
2022/01/26 03:29:42;;;;;;;3.57;3.27;;;2.50;99.90;;;;;;5056103;28;20204;-78
2022/01/26 03:34:54;;;;;;;1.67;1.67;;;2.50;99.90;;;;;;5055226;28;20181;-78
2022/01/26 03:39:47;;;;;;;3.73;2.57;;;2.50;99.90;;;;;;5090205;22;20242;-76
2022/01/26 03:42:16;;;;;;;4.17;3.97;;;2.50;99.90;;;;;;5072943;28;20173;-77
2022/01/26 03:44:42;;;;;;;7.93;5.57;;;2.50;99.90;;;;;;5073629;28;20175;-75
2022/01/26 03:47:09;;;;;;;5.20;4.13;;;2.50;99.90;;;;;;5073651;28;20171;-77
2022/01/26 03:49:35;;;;;;;5.43;5.03;;;2.50;99.90;;;;;;5037184;28;20226;-76
2022/01/26 03:52:05;;;;;;;10.27;4.60;;;2.60;99.90;;;;;;5035153;28;20179;-76
2022/01/26 03:54:30;;;;;;;5.30;4.83;;;2.60;99.90;;;;;;5053185;28;20182;-75
2022/01/26 03:56:56;;;;;;;5.93;5.27;;;2.60;99.90;;;;;;5053236;28;20650;-76
2022/01/26 03:59:22;;;;;;;5.63;5.10;;;2.50;99.90;;;;;;5053186;28;20207;-76
2022/01/26 04:01:47;;;;;;;8.40;4.10;;;2.50;99.90;;;;;;5053511;28;20183;-76
2022/01/26 04:04:13;;;;;;;9.53;5.97;;;2.50;99.90;;;;;;5065206;28;20210;-76
2022/01/26 04:06:39;;;;;;;14.90;8.37;;;2.60;99.90;;;;;;5055066;28;20186;-76
2022/01/26 04:09:08;;;;;;;7.30;6.63;;;2.60;99.90;;;;;;5055057;28;20218;-76
2022/01/26 04:14:02;;;;;;;6.93;6.40;;;2.50;99.90;;;;;;5073244;28;20199;-76
2022/01/26 04:16:27;;;;;;;6.97;6.37;;;2.50;99.90;;;;;;5072896;28;20667;-76
2022/01/26 04:18:55;;;;;;;4.97;3.57;;;2.50;99.90;;;;;;5072859;28;20279;-75
2022/01/26 04:24:16;;;;;;;4.47;4.17;;;2.50;99.90;;;;;;5071905;28;20202;-75
2022/01/26 04:26:57;;;;;;;3.60;3.30;;;2.50;99.90;;;;;;5042630;28;20245;-75
2022/01/26 04:29:27;;;;;;;10.17;8.50;;;2.50;99.90;;;;;;5034987;28;20972;-75
2022/01/26 04:31:53;;;;;;;5.23;4.70;;;2.50;99.90;;;;;;5052293;28;20175;-75
2022/01/26 04:34:19;;;;;;;13.80;8.87;;;2.50;99.90;;;;;;5071280;28;20218;-75
2022/01/26 04:37:02;;;;;;;9.63;6.90;;;2.50;99.90;;;;;;5072728;28;20206;-75
2022/01/26 04:39:33;;;;;;;15.57;6.43;;;2.40;99.90;;;;;;5054521;28;20229;-76
2022/01/26 04:42:06;;;;;;;5.50;5.10;;;2.40;99.90;;;;;;5072326;28;20181;-76
2022/01/26 04:44:38;;;;;;;5.27;4.93;;;2.40;99.90;;;;;;5063310;28;20295;-75
2022/01/26 04:47:04;;;;;;;7.03;6.37;;;2.40;99.90;;;;;;5052326;28;20273;-75
2022/01/26 04:49:30;;;;;;;6.83;5.23;;;2.50;99.90;;;;;;5052234;28;20305;-76
2022/01/26 04:51:55;;;;;;;10.07;9.07;;;2.50;99.90;;;;;;5033677;28;20627;-76
2022/01/26 04:54:21;;;;;;;8.47;2.87;;;2.50;99.90;;;;;;5034323;28;20177;-76
2022/01/26 04:56:47;;;;;;;9.10;5.57;;;2.40;99.90;;;;;;5034026;28;20267;-76
2022/01/26 04:59:12;;;;;;;8.17;7.50;;;2.40;99.90;;;;;;5052168;28;20745;-75
2022/01/26 05:01:38;;;;;;;7.50;5.93;;;2.40;99.90;;;;;;5051918;28;20202;-76
2022/01/26 05:04:04;;;;;;;10.60;6.77;;;2.40;99.90;;;;;;5034260;28;20185;-77
2022/01/26 05:06:29;;;;;;;8.33;7.63;;;2.40;99.90;;;;;;5052299;28;20644;-76
2022/01/26 05:08:55;;;;;;;7.70;5.97;;;2.40;99.90;;;;;;5052213;28;20234;-76
2022/01/26 05:11:31;;;;;;;9.07;8.30;;;2.40;99.90;;;;;;5054120;28;20642;-75
2022/01/26 05:13:58;;;;;;;7.87;5.43;;;2.40;99.90;;;;;;5054747;28;20179;-76
2022/01/26 05:16:23;;;;;;;18.43;6.47;;;2.40;99.90;;;;;;5056673;28;20174;-76
2022/01/26 05:18:49;;;;;;;9.90;9.07;;;2.40;99.90;;;;;;5055620;28;20205;-76
2022/01/26 05:21:14;;;;;;;10.70;8.00;;;2.50;99.90;;;;;;5056057;28;20236;-76
2022/01/26 05:23:40;;;;;;;12.90;8.20;;;2.50;99.90;;;;;;5052820;28;20184;-76
2022/01/26 05:26:05;;;;;;;9.97;6.37;;;2.40;99.90;;;;;;5056459;28;20194;-75
2022/01/26 05:28:31;;;;;;;16.80;9.00;;;2.40;99.90;;;;;;5072013;28;20213;-75
2022/01/26 05:30:57;;;;;;;6.23;5.47;;;2.40;99.90;;;;;;5050007;28;20660;-76
2022/01/26 05:33:23;;;;;;;13.47;6.77;;;2.40;99.90;;;;;;5062386;28;20173;-76
2022/01/26 05:35:51;;;;;;;7.87;7.33;;;2.40;99.90;;;;;;5071824;28;20205;-76
2022/01/26 05:38:16;;;;;;;4.97;4.60;;;2.30;99.90;;;;;;5060513;28;20256;-76
2022/01/26 05:40:42;;;;;;;5.30;4.87;;;2.30;99.90;;;;;;5051630;28;20196;-75
2022/01/26 05:43:07;;;;;;;8.77;8.13;;;2.30;99.90;;;;;;5066931;28;20184;-76
2022/01/26 05:45:36;;;;;;;11.17;10.30;;;2.30;99.90;;;;;;5055062;28;20254;-76
2022/01/26 05:48:04;;;;;;;12.93;4.87;;;2.30;99.90;;;;;;5071819;28;20258;-76
2022/01/26 05:50:32;;;;;;;4.90;4.60;;;2.30;99.90;;;;;;5071962;28;20557;-76
2022/01/26 05:52:57;;;;;;;9.47;8.53;;;2.30;99.90;;;;;;5071050;28;20204;-75
2022/01/26 05:55:23;;;;;;;4.53;4.13;;;2.30;99.90;;;;;;5071467;28;20636;-76
2022/01/26 05:57:48;;;;;;;6.40;2.93;;;2.30;99.90;;;;;;5053479;28;20316;-77
2022/01/26 06:00:14;;;;;;;7.43;6.87;;;2.30;99.90;;;;;;5074387;28;20641;-76
2022/01/26 06:02:40;;;;;;;11.53;8.07;;;2.30;99.90;;;;;;5075802;28;20181;-74
2022/01/26 06:05:06;;;;;;;33.23;8.80;;;2.20;99.90;;;;;;5079907;28;20174;-74
2022/01/26 06:07:32;;;;;;;6.67;4.27;;;2.20;99.90;;;;;;5053592;28;20232;-75
2022/01/26 06:09:57;;;;;;;7.07;6.43;;;2.30;99.90;;;;;;5032318;28;20672;-74
2022/01/26 06:12:23;;;;;;;8.27;7.57;;;2.20;99.90;;;;;;5048458;28;20186;-75
2022/01/26 06:14:48;;;;;;;19.23;7.77;;;2.20;99.90;;;;;;5059932;28;20598;-76
2022/01/26 06:17:14;;;;;;;9.30;7.23;;;2.20;99.90;;;;;;5075502;28;20574;-76
2022/01/26 06:19:39;;;;;;;6.90;4.80;;;2.20;99.90;;;;;;5075077;28;20264;-75
2022/01/26 06:22:05;;;;;;;12.20;7.43;;;2.20;99.90;;;;;;5057430;28;20189;-75
2022/01/26 06:24:30;;;;;;;7.37;5.03;;;2.20;99.90;;;;;;5048644;28;20315;-74
2022/01/26 06:26:56;;;;;;;7.70;5.83;;;2.20;99.90;;;;;;5055088;28;20262;-74
2022/01/26 06:29:21;;;;;;;10.43;8.33;;;2.20;99.90;;;;;;5036273;28;20215;-75
2022/01/26 06:31:47;;;;;;;8.20;7.47;;;2.20;99.90;;;;;;5054230;28;20176;-75
2022/01/26 06:34:13;;;;;;;11.27;7.03;;;2.20;99.90;;;;;;5071933;28;20195;-75
2022/01/26 06:36:44;;;;;;;20.93;9.37;;;2.20;99.90;;;;;;5057083;28;20169;-74
2022/01/26 06:39:11;;;;;;;6.97;5.47;;;2.20;99.90;;;;;;5074132;28;20263;-76
2022/01/26 06:41:37;;;;;;;12.97;11.57;;;2.20;99.90;;;;;;5074220;28;20640;-75
2022/01/26 06:44:15;;;;;;;7.70;4.73;;;2.20;99.90;;;;;;5074532;28;20175;-75
2022/01/26 06:51:52;;;;;;;4.07;3.73;;;2.20;99.90;;;;;;5073812;28;20176;-75
2022/01/26 06:54:17;;;;;;;16.93;8.67;;;2.20;99.90;;;;;;5074390;28;20184;-75
2022/01/26 06:56:45;;;;;;;4.33;4.03;;;2.20;99.90;;;;;;5056358;28;20182;-74
2022/01/26 06:59:11;;;;;;;8.43;7.47;;;2.20;99.90;;;;;;5074365;28;20213;-75
2022/01/26 07:01:36;;;;;;;12.03;7.20;;;2.20;99.90;;;;;;5056347;28;20191;-75
2022/01/26 07:04:02;;;;;;;3.33;3.13;;;2.20;99.90;;;;;;5056277;28;20184;-75
2022/01/26 07:06:28;;;;;;;5.90;5.30;;;2.20;99.90;;;;;;5056173;28;20191;-75
2022/01/26 07:08:53;;;;;;;9.30;8.40;;;2.20;99.90;;;;;;5056155;28;20215;-72
2022/01/26 07:11:19;;;;;;;9.40;4.77;;;2.10;99.90;;;;;;5073911;28;20185;-75
2022/01/26 07:13:45;;;;;;;8.63;7.77;;;2.10;99.90;;;;;;5056114;28;20189;-75
2022/01/26 07:21:43;;;;;;;15.27;7.17;;;2.10;99.90;;;;;;5056441;28;20244;-77
2022/01/26 07:24:09;;;;;;;7.17;5.93;;;2.30;99.90;;;;;;5072081;28;20180;-76
2022/01/26 07:26:36;;;;;;;3.73;3.43;;;2.20;99.90;;;;;;5043234;28;20187;-77
2022/01/26 07:29:07;;;;;;;16.50;9.03;;;2.20;99.90;;;;;;5054567;28;20203;-76
2022/01/26 07:31:35;;;;;;;7.07;5.77;;;2.20;99.90;;;;;;5036818;28;20184;-77
2022/01/26 07:34:01;;;;;;;4.67;4.37;;;2.20;99.90;;;;;;5070900;28;20200;-77
2022/01/26 07:36:26;;;;;;;9.77;6.63;;;2.30;99.90;;;;;;5056713;28;20269;-74
2022/01/26 07:38:55;;;;;;;11.17;10.23;;;2.30;99.90;;;;;;5056432;28;20228;-76
2022/01/26 07:41:20;;;;;;;9.73;8.83;;;2.30;99.90;;;;;;5055473;28;20194;-74
2022/01/26 07:43:46;;;;;;;10.87;8.40;;;2.30;99.90;;;;;;5050465;28;20193;-75
2022/01/26 07:46:13;;;;;;;14.83;9.23;;;2.20;99.90;;;;;;5041491;28;20177;-75
2022/01/26 07:48:39;;;;;;;27.27;14.33;;;2.20;99.90;;;;;;5053424;28;20277;-75
2022/01/26 07:51:04;;;;;;;12.23;6.90;;;2.30;99.90;;;;;;5035967;28;20340;-76
2022/01/26 07:53:31;;;;;;;12.23;6.17;;;2.20;99.90;;;;;;5053214;28;20186;-75
2022/01/26 07:55:57;;;;;;;10.93;9.23;;;2.20;99.90;;;;;;5053658;28;20186;-74
2022/01/26 07:58:23;;;;;;;8.20;7.43;;;2.20;99.90;;;;;;5053421;28;20204;-74
2022/01/26 08:00:49;;;;;;;14.27;12.77;;;2.30;99.90;;;;;;5053571;28;20180;-75
2022/01/26 08:03:15;;;;;;;10.80;9.83;;;2.30;99.90;;;;;;5053111;28;20187;-75
2022/01/26 08:05:41;;;;;;;13.30;12.20;;;2.30;99.90;;;;;;5054088;28;20678;-75
2022/01/26 08:08:07;;;;;;;7.20;6.63;;;2.30;99.90;;;;;;5053728;28;20211;-75
2022/01/26 08:10:33;;;;;;;11.97;6.83;;;2.30;99.90;;;;;;5035584;28;20207;-75
2022/01/26 08:12:59;;;;;;;4.73;4.43;;;2.30;99.90;;;;;;5053788;28;20183;-76
2022/01/26 08:15:26;;;;;;;5.83;4.53;;;2.30;99.90;;;;;;5054426;28;20256;-77
2022/01/26 08:17:51;;;;;;;8.07;7.33;;;2.30;99.90;;;;;;5053257;28;20216;-76
2022/01/26 08:20:17;;;;;;;6.57;6.07;;;2.30;99.90;;;;;;5054199;28;20182;-76
2022/01/26 08:22:43;;;;;;;8.43;5.80;;;2.30;99.90;;;;;;5052905;28;20233;-77
2022/01/26 08:25:10;;;;;;;6.57;5.97;;;2.40;99.90;;;;;;5053233;28;20206;-77
2022/01/26 08:27:46;;;;;;;9.70;7.03;;;2.40;99.90;;;;;;5069661;28;20653;-77
2022/01/26 08:30:15;;;;;;;4.23;4.03;;;2.40;99.90;;;;;;5073344;28;20231;-76
2022/01/26 08:32:42;;;;;;;11.90;10.40;;;2.40;99.90;;;;;;5041391;28;20837;-76
2022/01/26 08:35:07;;;;;;;12.33;6.80;;;2.40;99.90;;;;;;5073258;28;20189;-77
2022/01/26 08:37:33;;;;;;;5.90;5.43;;;2.40;99.90;;;;;;5072712;28;20180;-77
2022/01/26 08:39:59;;;;;;;8.33;7.60;;;2.40;99.90;;;;;;5055268;28;20195;-76
2022/01/26 08:42:24;;;;;;;9.73;7.73;;;2.40;99.90;;;;;;5073399;28;20181;-76
2022/01/26 08:44:51;;;;;;;11.20;5.70;;;2.30;99.90;;;;;;5054790;28;20281;-76
2022/01/26 08:47:17;;;;;;;11.57;3.73;;;2.30;99.90;;;;;;5068621;28;20195;-76
2022/01/26 08:49:42;;;;;;;12.37;7.53;;;2.30;99.90;;;;;;5035909;28;20210;-76
2022/01/26 08:52:08;;;;;;;4.60;4.20;;;2.30;99.90;;;;;;5053568;28;20277;-76
2022/01/26 08:54:33;;;;;;;5.93;4.40;;;2.30;99.90;;;;;;5054370;28;20182;-76
2022/01/26 08:57:00;;;;;;;5.23;4.90;;;2.30;99.90;;;;;;5053077;28;20188;-78
2022/01/26 08:59:25;;;;;;;27.67;9.20;;;2.30;99.90;;;;;;5034368;28;20239;-76
2022/01/26 09:01:52;;;;;;;9.70;7.17;;;2.20;99.90;;;;;;5042627;28;20215;-77
2022/01/26 09:04:18;;;;;;;5.37;4.03;;;2.30;99.90;;;;;;5055885;28;20232;-77
2022/01/26 09:06:52;;;;;;;22.07;8.20;;;2.30;99.90;;;;;;5072338;28;20182;-77
2022/01/26 09:09:21;;;;;;;11.17;7.10;;;2.30;99.90;;;;;;5072345;28;20706;-77
2022/01/26 09:11:48;;;;;;;8.37;6.60;;;2.30;99.90;;;;;;5071643;28;20554;-76
2022/01/26 09:14:20;;;;;;;14.97;7.40;;;2.30;99.90;;;;;;5072438;28;20199;-77
2022/01/26 09:16:46;;;;;;;7.97;6.43;;;2.30;99.90;;;;;;5072995;28;20175;-75
2022/01/26 09:19:33;;;;;;;7.40;5.30;;;2.30;99.90;;;;;;5072895;28;20203;-76
2022/01/26 09:22:01;;;;;;;8.87;8.07;;;2.30;99.90;;;;;;5072385;28;20592;-77
2022/01/26 09:24:28;;;;;;;5.23;4.77;;;2.30;99.90;;;;;;5064404;28;20184;-78
2022/01/26 09:26:55;;;;;;;10.13;7.97;;;2.20;99.90;;;;;;5043937;28;20202;-77
2022/01/26 09:29:20;;;;;;;13.27;11.87;;;2.30;99.90;;;;;;5052971;28;20223;-77
2022/01/26 09:31:47;;;;;;;6.90;6.23;;;2.30;99.90;;;;;;5052188;28;20238;-76
2022/01/26 09:34:17;;;;;;;8.60;7.93;;;2.30;99.90;;;;;;5070629;28;20174;-76
2022/01/26 09:36:44;;;;;;;6.50;5.57;;;2.40;99.90;;;;;;5054313;28;20175;-77
2022/01/26 09:39:11;;;;;;;13.60;8.57;;;2.40;99.90;;;;;;5074698;22;20231;-77
2022/01/26 09:41:38;;;;;;;6.30;5.90;;;2.40;99.90;;;;;;5050660;28;20195;-77
2022/01/26 09:44:04;;;;;;;12.17;9.13;;;2.50;99.90;;;;;;5051164;28;20240;-76
2022/01/26 09:46:30;;;;;;;10.10;6.80;;;2.40;99.90;;;;;;5051397;28;20282;-76
2022/01/26 09:48:56;;;;;;;14.20;7.90;;;2.40;99.90;;;;;;5051257;28;20298;-76
2022/01/26 09:51:22;;;;;;;12.37;8.23;;;2.40;99.90;;;;;;5051325;28;20181;-76
2022/01/26 09:54:05;;;;;;;5.07;3.77;;;2.40;99.90;;;;;;5051251;28;20593;-77
2022/01/26 09:56:31;;;;;;;12.43;9.77;;;2.40;99.90;;;;;;5050933;28;20167;-75
2022/01/26 09:58:57;;;;;;;32.47;12.00;;;2.40;99.90;;;;;;5030282;28;20871;-75
2022/01/26 10:01:24;;;;;;;9.23;8.53;;;2.40;99.90;;;;;;5031503;28;20194;-75
2022/01/26 10:03:51;;;;;;;16.63;9.53;;;2.40;99.90;;;;;;5033134;28;20193;-76
2022/01/26 10:06:26;;;;;;;9.17;8.53;;;2.40;99.90;;;;;;5033108;28;20188;-76
2022/01/26 10:09:01;;;;;;;10.60;9.33;;;2.40;99.90;;;;;;5050931;28;20207;-76
2022/01/26 10:17:23;;;;;;;12.80;9.97;;;2.40;99.90;;;;;;5051236;28;20317;-76
2022/01/26 10:19:58;;;;;;;17.07;10.57;;;2.40;99.90;;;;;;5050630;28;20211;-77
2022/01/26 10:22:29;;;;;;;7.87;7.20;;;2.30;99.90;;;;;;5050479;28;20594;-77
2022/01/26 10:25:13;;;;;;;7.40;6.10;;;2.30;99.90;;;;;;5025319;28;20674;-77
2022/01/26 10:27:45;;;;;;;29.33;9.33;;;2.30;99.90;;;;;;5047819;28;20177;-77
2022/01/26 10:30:13;;;;;;;7.87;7.23;;;2.30;99.90;;;;;;5050951;28;20285;-77
2022/01/26 10:32:41;;;;;;;8.20;7.43;;;2.30;99.90;;;;;;5050191;28;20194;-77
2022/01/26 10:35:08;;;;;;;13.90;9.93;;;2.30;99.90;;;;;;5050707;28;20175;-77
2022/01/26 10:37:34;;;;;;;40.30;10.07;;;2.30;99.90;;;;;;5032649;28;20183;-76
2022/01/26 10:40:18;;;;;;;13.63;6.77;;;2.30;99.90;;;;;;5050564;28;20240;-77
2022/01/26 10:43:08;;;;;;;14.37;9.57;;;2.40;99.90;;;;;;5050212;28;20179;-76
2022/01/26 10:51:32;;;;;;;15.67;6.97;;;2.40;99.90;;;;;;5054204;28;20188;-77
2022/01/26 10:54:04;;;;;;;8.50;7.80;;;2.40;99.90;;;;;;5053830;28;20190;-77
2022/01/26 10:56:29;;;;;;;8.23;7.53;;;2.50;99.90;;;;;;5054088;28;20176;-76
2022/01/26 10:58:58;;;;;;;5.47;5.00;;;2.60;99.90;;;;;;5054150;28;20264;-77
2022/01/26 11:01:23;;;;;;;11.00;5.47;;;2.60;99.90;;;;;;5035956;28;20190;-77
2022/01/26 11:03:49;;;;;;;19.87;11.57;;;2.60;99.90;;;;;;5053854;28;20187;-77
2022/01/26 11:06:18;;;;;;;7.70;5.40;;;2.60;99.90;;;;;;5054069;28;20187;-77
2022/01/26 11:08:44;;;;;;;11.80;10.87;;;2.70;99.90;;;;;;5036189;28;20353;-77
2022/01/26 11:11:22;;;;;;;11.67;9.00;;;2.80;99.90;;;;;;5054628;28;20222;-77
2022/01/26 11:13:48;;;;;;;21.37;10.83;;;2.70;99.90;;;;;;5054153;28;20287;-77
2022/01/26 11:16:15;;;;;;;4.60;4.37;;;2.80;99.90;;;;;;5044021;28;20200;-77
2022/01/26 11:18:51;;;;;;;9.33;8.13;;;2.80;99.90;;;;;;5037350;28;20683;-76
2022/01/26 11:21:35;;;;;;;14.07;7.23;;;2.90;99.90;;;;;;5038533;28;20187;-75
2022/01/26 11:24:18;;;;;;;11.73;4.13;;;3.00;99.90;;;;;;5049802;28;20168;-77
2022/01/26 11:26:46;;;;;;;19.53;7.30;;;3.00;99.90;;;;;;5043717;28;20180;-77
2022/01/26 11:29:31;;;;;;;9.83;8.40;;;3.00;99.90;;;;;;5053753;28;20307;-75
2022/01/26 11:32:01;;;;;;;5.50;5.03;;;3.10;99.90;;;;;;5036136;28;20219;-77
2022/01/26 11:34:29;;;;;;;9.67;7.47;;;3.10;99.90;;;;;;5040388;28;20181;-75
2022/01/26 11:36:59;;;;;;;4.63;4.37;;;2.90;99.90;;;;;;5035755;28;20183;-76
2022/01/26 11:42:31;;;;;;;4.37;4.07;;;2.90;99.90;;;;;;5042583;28;20204;-77
2022/01/26 11:45:09;;;;;;;4.97;3.03;;;2.90;99.90;;;;;;5035648;28;20861;-77
2022/01/26 11:47:41;;;;;;;9.87;6.87;;;2.80;99.90;;;;;;5053924;28;20181;-77
2022/01/26 11:50:14;;;;;;;4.17;3.87;;;2.80;99.90;;;;;;5055577;28;20303;-78
2022/01/26 11:52:40;;;;;;;9.17;8.47;;;2.80;99.90;;;;;;5054202;28;20264;-77
2022/01/26 11:55:38;;;;;;;12.10;5.83;;;2.80;99.90;;;;;;5054073;28;20182;-77
2022/01/26 11:58:08;;;;;;;5.13;4.70;;;2.80;99.90;;;;;;5054557;28;20218;-77
2022/01/26 12:00:44;;;;;;;3.23;2.87;;;2.80;99.90;;;;;;5053112;28;20200;-77
2022/01/26 12:03:48;;;;;;;6.50;5.70;;;2.80;99.90;;;;;;5037025;28;20561;-78
2022/01/26 12:06:24;;;;;;;3.23;3.07;;;2.90;99.90;;;;;;5041420;28;20183;-78
2022/01/26 12:08:50;;;;;;;3.93;2.80;;;2.90;99.90;;;;;;5054175;28;20725;-77
2022/01/26 12:11:20;;;;;;;2.50;2.37;;;2.90;99.90;;;;;;5053661;28;20203;-75
2022/01/26 12:13:50;;;;;;;9.73;5.87;;;2.90;99.90;;;;;;5053288;28;20178;-77
2022/01/26 12:16:19;;;;;;;12.43;6.10;;;2.80;99.90;;;;;;5052831;28;20271;-77
2022/01/26 12:19:22;;;;;;;8.77;7.07;;;2.80;99.90;;;;;;5035711;28;20620;-77
2022/01/26 12:38:15;;;;;;;4.50;3.23;;;3.00;99.90;;;;;;5033491;28;20209;-77
2022/01/26 12:43:43;;;;;;;3.50;3.20;;;2.90;99.90;;;;;;5053410;28;20727;-77
2022/01/26 12:46:13;;;;;;;2.87;2.67;;;2.80;99.90;;;;;;5034178;28;20532;-76
2022/01/26 12:48:40;;;;;;;11.83;3.57;;;2.80;99.90;;;;;;5036048;28;20682;-78
2022/01/26 12:51:08;;;;;;;11.70;4.90;;;2.80;99.90;;;;;;5041384;28;20744;-78
2022/01/26 12:53:35;;;;;;;6.27;5.77;;;2.80;99.90;;;;;;5041438;28;20652;-78
2022/01/26 12:56:07;;;;;;;4.23;4.03;;;2.80;99.90;;;;;;5032463;28;20185;-76
2022/01/26 12:58:36;;;;;;;4.90;4.37;;;2.80;99.90;;;;;;5037847;28;20204;-76
2022/01/26 13:01:09;;;;;;;11.00;6.33;;;2.90;99.90;;;;;;5042325;28;20184;-76
2022/01/26 13:03:38;;;;;;;14.03;6.40;;;3.00;99.90;;;;;;5050166;28;20184;-76
2022/01/26 13:06:10;;;;;;;4.40;4.20;;;3.00;99.90;;;;;;5045332;28;20719;-78
2022/01/26 13:08:44;;;;;;;5.07;4.67;;;3.00;99.90;;;;;;5052492;28;20212;-78
2022/01/26 13:11:09;;;;;;;7.17;5.43;;;2.90;99.90;;;;;;5042169;28;20183;-77
2022/01/26 13:13:35;;;;;;;8.37;6.97;;;3.00;99.90;;;;;;5018444;28;20185;-76
2022/01/26 13:16:25;;;;;;;8.53;7.73;;;3.00;99.90;;;;;;5034275;28;20260;-74
2022/01/26 13:21:44;;;;;;;34.73;8.67;;;3.10;99.90;;;;;;5046221;28;20225;-76
2022/01/26 13:24:54;;;;;;;12.00;5.33;;;3.00;99.90;;;;;;5044120;28;20174;-76
2022/01/26 13:32:40;;;;;;;6.47;5.90;;;3.00;99.90;;;;;;5050950;28;20219;-77
2022/01/26 13:51:16;;;;;;;3.93;3.57;;;3.00;99.90;;;;;;4989152;28;20189;-76
2022/01/26 13:54:43;;;;;;;6.53;5.60;;;3.00;99.90;;;;;;4973450;28;20175;-77
2022/01/26 13:56:38;;;;;;;6.00;5.43;;;2.90;99.90;;;;;;5001187;28;20179;-77
2022/01/26 14:01:32;;;;;;;4.47;3.87;;;2.90;99.90;;;;;;5041194;28;20181;-78
2022/01/26 14:04:03;;;;;;;13.83;7.07;;;3.00;99.90;;;;;;5056605;28;20191;-78
2022/01/26 14:06:28;;;;;;;8.50;6.40;;;3.10;99.90;;;;;;5056600;28;20684;-78
2022/01/26 14:08:54;;;;;;;12.77;5.47;;;3.10;99.90;;;;;;5045327;28;20209;-76
2022/01/26 14:11:20;;;;;;;5.60;3.93;;;3.10;99.90;;;;;;5046767;28;20227;-76
2022/01/26 14:13:46;;;;;;;5.73;5.03;;;3.20;99.90;;;;;;5053315;28;20695;-76
2022/01/26 14:16:15;;;;;;;5.17;4.60;;;3.20;99.90;;;;;;5050525;28;20676;-76
2022/01/26 14:26:52;;;;;;;3.40;3.17;;;3.10;99.90;;;;;;4971313;28;20555;-77
2022/01/26 14:29:31;;;;;;;7.00;6.43;;;3.20;99.90;;;;;;5034207;28;20212;-76
2022/01/26 14:32:31;;;;;;;12.57;6.47;;;3.20;99.90;;;;;;5054729;28;20180;-76
2022/01/26 14:35:19;;;;;;;7.27;5.90;;;3.20;99.90;;;;;;5036232;28;20551;-76
2022/01/26 14:54:17;;;;;;;2.70;2.53;;;3.00;99.90;;;;;;5054375;28;20180;-76
2022/01/26 15:19:11;;;;;;;5.53;4.50;;;2.90;99.90;;;;;;5053828;28;20665;-76
2022/01/26 15:30:24;;;;;;;4.03;3.83;;;2.70;99.90;;;;;;4984149;28;20364;-76
2022/01/26 15:41:14;;;;;;;3.90;3.63;;;2.70;99.90;;;;;;5082631;22;20313;-77
2022/01/26 15:52:03;;;;;;;11.07;5.30;;;2.60;99.90;;;;;;5053212;28;20274;-77
2022/01/26 15:57:39;;;;;;;4.47;4.07;;;2.60;99.90;;;;;;5053191;28;20667;-77
2022/01/26 16:54:07;;;;;;;5.93;5.47;;;2.60;99.90;;;;;;5071800;28;20267;-77
2022/01/26 18:46:53;;;;;;;4.23;2.63;;;2.50;99.90;;;;;;5059628;28;20187;-78
2022/01/26 18:49:20;;;;;;;2.90;2.73;;;2.50;99.90;;;;;;5041066;28;20205;-79
2022/01/26 18:51:55;;;;;;;4.00;3.70;;;2.50;99.90;;;;;;5062808;28;20180;-78
2022/01/26 18:54:24;;;;;;;4.73;2.87;;;2.50;99.90;;;;;;5080529;28;20185;-79
2022/01/26 18:56:51;;;;;;;3.20;3.00;;;2.50;99.90;;;;;;5062220;28;20237;-79
2022/01/26 18:59:21;;;;;;;4.33;3.33;;;2.50;99.90;;;;;;5060293;28;20631;-79
2022/01/26 19:01:47;;;;;;;4.10;3.90;;;2.50;99.90;;;;;;5059732;28;20241;-79
2022/01/26 19:04:13;;;;;;;6.73;3.80;;;2.50;99.90;;;;;;5076210;28;20268;-79
2022/01/26 19:06:42;;;;;;;1.80;1.67;;;2.50;99.90;;;;;;5076168;28;20189;-79
2022/01/26 19:09:08;;;;;;;3.80;2.27;;;2.50;99.90;;;;;;5061653;28;20214;-78
2022/01/26 19:11:33;;;;;;;4.37;4.00;;;2.50;99.90;;;;;;5063461;28;20186;-79
2022/01/26 19:14:00;;;;;;;2.17;2.03;;;2.50;99.90;;;;;;5062321;28;20178;-79
2022/01/26 19:19:09;;;;;;;0.70;0.70;;;2.60;99.90;;;;;;5074599;28;20190;-78
2022/01/26 19:26:43;;;;;;;4.00;3.63;;;2.50;99.90;;;;;;5050034;28;20202;-79
2022/01/26 19:29:26;;;;;;;2.13;2.03;;;2.50;99.90;;;;;;5045029;28;20212;-79
2022/01/26 19:50:50;;;;;;;2.70;2.60;;;2.60;99.90;;;;;;5059453;28;20204;-79
2022/01/26 19:53:16;;;;;;;6.17;2.63;;;2.50;99.90;;;;;;5063317;28;20195;-78
2022/01/26 19:55:42;;;;;;;9.00;4.53;;;2.60;99.90;;;;;;5044007;28;20193;-78
2022/01/26 19:58:08;;;;;;;3.40;3.20;;;2.50;99.90;;;;;;5058480;28;20194;-78
2022/01/26 20:00:36;;;;;;;1.67;1.67;;;2.60;99.90;;;;;;5047039;28;20277;-78
2022/01/26 20:03:02;;;;;;;5.97;4.70;;;2.60;99.90;;;;;;5064246;28;20195;-78
2022/01/26 20:05:32;;;;;;;2.13;2.03;;;2.60;99.90;;;;;;5058671;28;20191;-79
2022/01/26 20:08:04;;;;;;;4.50;4.07;;;2.50;99.90;;;;;;5045439;28;20237;-79